Catalina Express — WCJ6210 — position and weather

sailwx.info

Track history (hours):
 
Tides and Currents Weather Stations Pressure Air Temp Water Temp Dewpoint Dewpoint Depression Visibility Wind Speed Wind Dir Waves Ship Positions

Catalina Express

Owner: RGWT INC, Long Beach, CA. More information available from US FCC via Universal Licensing System and Coast Guard Vessel Documentation Center.

Last reported at 2018-Apr-21 00:04 UTC. Time now 2018-Apr-21 06:10 UTC.
Position N 33°45' W 118°16'.

Length 64 m; draft 1.1 m.

Type: High speed craft. MMSI: 366943960.

Date/timePositionNaut miles runAvg speedWind from/ knotsBaromVisibWave heightAir tempDewpointWater temp
2018-Apr-21 00:04N 33°45' W 118°16'0 0.0
2018-Apr-21 00:00N 33°45' W 118°16'0 0.0
2018-Apr-20 23:30N 33°45' W 118°16'1 1.9
2018-Apr-20 23:00N 33°44' W 118°16'3 1.1
2018-Apr-20 20:20N 33°41' W 118°15'411.8
2018-Apr-20 20:00N 33°45' W 118°16'0 0.0
2018-Apr-20 19:31N 33°45' W 118°16'1 0.3
2018-Apr-20 16:39N 33°44' W 118°17'1 5.5
2018-Apr-20 16:30N 33°45' W 118°16'0 0.0
2018-Apr-20 16:00N 33°45' W 118°16'0 0.0
2018-Apr-20 15:30N 33°45' W 118°16'0 0.0
2018-Apr-20 15:00N 33°45' W 118°16'0 0.0
2018-Apr-20 14:30N 33°45' W 118°16'0 0.0
2018-Apr-20 14:00N 33°45' W 118°16'0 0.0
2018-Apr-20 13:30N 33°45' W 118°16'0 0.0
2018-Apr-20 13:00N 33°45' W 118°16'0 0.0
2018-Apr-20 12:30N 33°45' W 118°16'  
2018-Apr-16 03:16N 33°45' W 118°16'4 1.6
2018-Apr-16 00:26N 33°41' W 118°15'410.6
2018-Apr-16 00:01N 33°45' W 118°16'0 0.0
2018-Apr-15 23:30N 33°45' W 118°16'1 2.6
2018-Apr-15 23:01N 33°44' W 118°16'3 1.2
2018-Apr-15 20:21N 33°41' W 118°15'412.0
2018-Apr-15 20:00N 33°45' W 118°17'0 0.3
2018-Apr-15 19:30N 33°45' W 118°16'0 0.0
2018-Apr-15 18:59N 33°45' W 118°16'1 2.1
2018-Apr-15 18:30N 33°44' W 118°16'3 1.1
2018-Apr-15 16:08N 33°41' W 118°15'218.2
2018-Apr-15 16:00N 33°43' W 118°16'1 2.8
2018-Apr-15 15:30N 33°45' W 118°16'0 0.0
2018-Apr-15 15:00N 33°45' W 118°16'0 0.0
2018-Apr-15 14:30N 33°45' W 118°16'0 0.0
2018-Apr-15 14:00N 33°45' W 118°16'0 0.0
2018-Apr-15 13:30N 33°45' W 118°16'0 0.0
2018-Apr-15 03:17N 33°45' W 118°16'2 0.8
2018-Apr-15 00:21N 33°43' W 118°15'2 7.0
2018-Apr-15 00:00N 33°45' W 118°16'0 0.0
2018-Apr-14 23:30N 33°45' W 118°16'1 1.8
2018-Apr-14 23:00N 33°44' W 118°16'1 0.4
2018-Apr-14 19:45N 33°43' W 118°16'2 7.5
2018-Apr-14 19:30N 33°45' W 118°16'0 0.2
2018-Apr-14 18:59N 33°45' W 118°16'0 0.0
2018-Apr-14 18:30N 33°45' W 118°16'0 0.0
2018-Apr-14 18:00N 33°45' W 118°16'1 1.8
2018-Apr-14 17:30N 33°44' W 118°16'2 0.9
2018-Apr-14 15:20N 33°42' W 118°15'3 8.3
2018-Apr-14 15:00N 33°45' W 118°16'0 0.0
2018-Apr-14 14:30N 33°45' W 118°16'0 0.0
2018-Apr-14 14:00N 33°45' W 118°16'0 0.0
2018-Apr-14 13:30N 33°45' W 118°16'0 0.0
2018-Apr-14 13:00N 33°45' W 118°16'0 0.0
2018-Apr-14 12:30N 33°45' W 118°16'0 0.0
2018-Apr-14 06:49N 33°45' W 118°16'0 0.0
2018-Apr-14 06:30N 33°45' W 118°16'0 0.0
2018-Apr-14 06:00N 33°45' W 118°16'2 0.7
2018-Apr-14 02:32N 33°43' W 118°15'122.5
2018-Apr-14 02:30N 33°43' W 118°16'2 3.6
2018-Apr-14 02:00N 33°45' W 118°16'1 2.1
2018-Apr-14 01:30N 33°44' W 118°16'3 1.0
2018-Apr-13 22:50N 33°41' W 118°15'411.2
2018-Apr-13 22:30N 33°45' W 118°16'0 0.1
2018-Apr-13 22:00N 33°45' W 118°16'0 0.0
2018-Apr-13 21:30N 33°45' W 118°16'0 0.0
2018-Apr-13 21:00N 33°45' W 118°16'0 0.0
2018-Apr-13 20:30N 33°45' W 118°16'4 1.4
2018-Apr-13 17:23N 33°41' W 118°16'411.5
2018-Apr-13 17:00N 33°45' W 118°16'0 0.0
2018-Apr-13 16:30N 33°45' W 118°16'0 0.0
2018-Apr-13 16:00N 33°45' W 118°16'0 0.0
2018-Apr-13 15:30N 33°45' W 118°16'0 0.0
2018-Apr-13 15:00N 33°45' W 118°16'0 0.0
2018-Apr-13 14:30N 33°45' W 118°16'0 0.0
2018-Apr-13 14:00N 33°45' W 118°16'0 0.0
2018-Apr-13 13:30N 33°45' W 118°16'0 0.0
2018-Apr-13 13:00N 33°45' W 118°16'0 0.0
2018-Apr-12 21:44N 33°45' W 118°16'0 0.0
2018-Apr-12 21:31N 33°45' W 118°16'0 0.0
2018-Apr-12 01:38N 33°45' W 118°16'1 6.1
2018-Apr-12 01:31N 33°44' W 118°17'4 1.3
2018-Apr-11 22:19N 33°40' W 118°17'413.4
2018-Apr-11 22:00N 33°44' W 118°17'1 1.1
2018-Apr-11 21:30N 33°45' W 118°16'0 0.0
2018-Apr-11 21:00N 33°45' W 118°16'0 0.0
2018-Apr-11 20:30N 33°45' W 118°16'0 0.0
2018-Apr-11 20:00N 33°45' W 118°16'0 0.0
2018-Apr-11 19:30N 33°45' W 118°16'4 1.1
2018-Apr-11 16:11N 33°41' W 118°15'315.2
2018-Apr-11 16:00N 33°44' W 118°16'1 2.0
2018-Apr-11 15:30N 33°45' W 118°16'0 0.0
2018-Apr-11 15:01N 33°45' W 118°16'0 0.0
2018-Apr-11 14:31N 33°45' W 118°16'0 0.0
2018-Apr-11 14:01N 33°45' W 118°16'0 0.0
2018-Apr-11 13:31N 33°45' W 118°16'0 0.0
2018-Apr-11 13:00N 33°45' W 118°16'  
Track history (hours):
 
Tides and Currents Weather Stations Pressure Air Temp Water Temp Dewpoint Dewpoint Depression Visibility Wind Speed Wind Dir Waves Ship Positions

Catalina Express

Owner: RGWT INC, Long Beach, CA. More information available from US FCC via Universal Licensing System and Coast Guard Vessel Documentation Center.

Last reported at 2018-Apr-21 00:04 UTC. Time now 2018-Apr-21 06:10 UTC.
Position N 33°45' W 118°16'.

Length 64 m; draft 1.1 m.

Type: High speed craft. MMSI: 366943960.

Date/timePositionNaut miles runAvg speedWind from/ knotsBaromVisibWave heightAir tempDewpointWater temp
2018-Apr-21 00:04N 33°45' W 118°16'0 0.0
2018-Apr-21 00:00N 33°45' W 118°16'0 0.0
2018-Apr-20 23:30N 33°45' W 118°16'1 1.9
2018-Apr-20 23:00N 33°44' W 118°16'3 1.1
2018-Apr-20 20:20N 33°41' W 118°15'411.8
2018-Apr-20 20:00N 33°45' W 118°16'0 0.0
2018-Apr-20 19:31N 33°45' W 118°16'1 0.3
2018-Apr-20 16:39N 33°44' W 118°17'1 5.5
2018-Apr-20 16:30N 33°45' W 118°16'0 0.0
2018-Apr-20 16:00N 33°45' W 118°16'0 0.0
2018-Apr-20 15:30N 33°45' W 118°16'0 0.0
2018-Apr-20 15:00N 33°45' W 118°16'0 0.0
2018-Apr-20 14:30N 33°45' W 118°16'0 0.0
2018-Apr-20 14:00N 33°45' W 118°16'0 0.0
2018-Apr-20 13:30N 33°45' W 118°16'0 0.0
2018-Apr-20 13:00N 33°45' W 118°16'0 0.0
2018-Apr-20 12:30N 33°45' W 118°16'  
2018-Apr-16 03:16N 33°45' W 118°16'4 1.6
2018-Apr-16 00:26N 33°41' W 118°15'410.6
2018-Apr-16 00:01N 33°45' W 118°16'0 0.0
2018-Apr-15 23:30N 33°45' W 118°16'1 2.6
2018-Apr-15 23:01N 33°44' W 118°16'3 1.2
2018-Apr-15 20:21N 33°41' W 118°15'412.0
2018-Apr-15 20:00N 33°45' W 118°17'0 0.3
2018-Apr-15 19:30N 33°45' W 118°16'0 0.0
2018-Apr-15 18:59N 33°45' W 118°16'1 2.1
2018-Apr-15 18:30N 33°44' W 118°16'3 1.1
2018-Apr-15 16:08N 33°41' W 118°15'218.2
2018-Apr-15 16:00N 33°43' W 118°16'1 2.8
2018-Apr-15 15:30N 33°45' W 118°16'0 0.0
2018-Apr-15 15:00N 33°45' W 118°16'0 0.0
2018-Apr-15 14:30N 33°45' W 118°16'0 0.0
2018-Apr-15 14:00N 33°45' W 118°16'0 0.0
2018-Apr-15 13:30N 33°45' W 118°16'0 0.0
2018-Apr-15 03:17N 33°45' W 118°16'2 0.8
2018-Apr-15 00:21N 33°43' W 118°15'2 7.0
2018-Apr-15 00:00N 33°45' W 118°16'0 0.0
2018-Apr-14 23:30N 33°45' W 118°16'1 1.8
2018-Apr-14 23:00N 33°44' W 118°16'1 0.4
2018-Apr-14 19:45N 33°43' W 118°16'2 7.5
2018-Apr-14 19:30N 33°45' W 118°16'0 0.2
2018-Apr-14 18:59N 33°45' W 118°16'0 0.0
2018-Apr-14 18:30N 33°45' W 118°16'0 0.0
2018-Apr-14 18:00N 33°45' W 118°16'1 1.8
2018-Apr-14 17:30N 33°44' W 118°16'2 0.9
2018-Apr-14 15:20N 33°42' W 118°15'3 8.3
2018-Apr-14 15:00N 33°45' W 118°16'0 0.0
2018-Apr-14 14:30N 33°45' W 118°16'0 0.0
2018-Apr-14 14:00N 33°45' W 118°16'0 0.0
2018-Apr-14 13:30N 33°45' W 118°16'0 0.0
2018-Apr-14 13:00N 33°45' W 118°16'0 0.0
2018-Apr-14 12:30N 33°45' W 118°16'0 0.0
2018-Apr-14 06:49N 33°45' W 118°16'0 0.0
2018-Apr-14 06:30N 33°45' W 118°16'0 0.0
2018-Apr-14 06:00N 33°45' W 118°16'2 0.7
2018-Apr-14 02:32N 33°43' W 118°15'122.5
2018-Apr-14 02:30N 33°43' W 118°16'2 3.6
2018-Apr-14 02:00N 33°45' W 118°16'1 2.1
2018-Apr-14 01:30N 33°44' W 118°16'3 1.0
2018-Apr-13 22:50N 33°41' W 118°15'411.2
2018-Apr-13 22:30N 33°45' W 118°16'0 0.1
2018-Apr-13 22:00N 33°45' W 118°16'0 0.0
2018-Apr-13 21:30N 33°45' W 118°16'0 0.0
2018-Apr-13 21:00N 33°45' W 118°16'0 0.0
2018-Apr-13 20:30N 33°45' W 118°16'4 1.4
2018-Apr-13 17:23N 33°41' W 118°16'411.5
2018-Apr-13 17:00N 33°45' W 118°16'0 0.0
2018-Apr-13 16:30N 33°45' W 118°16'0 0.0
2018-Apr-13 16:00N 33°45' W 118°16'0 0.0
2018-Apr-13 15:30N 33°45' W 118°16'0 0.0
2018-Apr-13 15:00N 33°45' W 118°16'0 0.0
2018-Apr-13 14:30N 33°45' W 118°16'0 0.0
2018-Apr-13 14:00N 33°45' W 118°16'0 0.0
2018-Apr-13 13:30N 33°45' W 118°16'0 0.0
2018-Apr-13 13:00N 33°45' W 118°16'0 0.0
2018-Apr-12 21:44N 33°45' W 118°16'0 0.0
2018-Apr-12 21:31N 33°45' W 118°16'0 0.0
2018-Apr-12 01:38N 33°45' W 118°16'1 6.1
2018-Apr-12 01:31N 33°44' W 118°17'4 1.3
2018-Apr-11 22:19N 33°40' W 118°17'413.4
2018-Apr-11 22:00N 33°44' W 118°17'1 1.1
2018-Apr-11 21:30N 33°45' W 118°16'0 0.0
2018-Apr-11 21:00N 33°45' W 118°16'0 0.0
2018-Apr-11 20:30N 33°45' W 118°16'0 0.0
2018-Apr-11 20:00N 33°45' W 118°16'0 0.0
2018-Apr-11 19:30N 33°45' W 118°16'4 1.1
2018-Apr-11 16:11N 33°41' W 118°15'315.2
2018-Apr-11 16:00N 33°44' W 118°16'1 2.0
2018-Apr-11 15:30N 33°45' W 118°16'0 0.0
2018-Apr-11 15:01N 33°45' W 118°16'0 0.0
2018-Apr-11 14:31N 33°45' W 118°16'0 0.0
2018-Apr-11 14:01N 33°45' W 118°16'0 0.0
2018-Apr-11 13:31N 33°45' W 118°16'0 0.0
2018-Apr-11 13:00N 33°45' W 118°16'  

Dump ship's entire track history